Terminal Aerodrome Forecast
Issued by NWS

Home | Current Version | Previous Version | Text Only | Print | Product List | Glossary On
Versions: 1 2 3 4 5 6 7 8 9 10 11 12 13 14 15 16 17 18 19 20 21 22
000
FTUS43 KBIS 281614 AAB
TAFMOT
TAF AMD
KMOT 281614Z 2816/2912 26008KT P6SM BKN015
     FM281800 33011KT P6SM BKN030
     FM282000 35014G21KT P6SM VCSH BKN050
     FM290400 34011KT P6SM SCT035 SCT100=

USA.gov is the U.S. government's official web portal to all federal, state and local government web resources and services.